sensor_id;sensor_type;location;lat;lon;timestamp;pressure;altitude;pressure_sealevel;temperature;humidity
75668;BME280;64266;48.798;44.756;2022-11-20T00:02:22;101467.22;;;10.89;88.29
75668;BME280;64266;48.798;44.756;2022-11-20T00:04:48;101432.53;;;10.77;87.84
75668;BME280;64266;48.798;44.756;2022-11-20T00:07:14;101420.06;;;10.78;87.95
75668;BME280;64266;48.798;44.756;2022-11-20T00:09:40;101448.25;;;10.92;87.88
75668;BME280;64266;48.798;44.756;2022-11-20T00:12:05;101444.81;;;10.98;87.72
75668;BME280;64266;48.798;44.756;2022-11-20T00:14:32;101472.16;;;11.12;87.42
75668;BME280;64266;48.798;44.756;2022-11-20T00:16:58;101447.88;;;11.08;87.74
75668;BME280;64266;48.798;44.756;2022-11-20T00:19:23;101378.84;;;10.62;87.40
75668;BME280;64266;48.798;44.756;2022-11-20T00:21:51;101447.88;;;11.15;87.69
75668;BME280;64266;48.798;44.756;2022-11-20T00:24:19;101456.66;;;11.35;88.09
75668;BME280;64266;48.798;44.756;2022-11-20T00:26:45;101374.78;;;10.73;87.55
75668;BME280;64266;48.798;44.756;2022-11-20T00:29:11;101462.34;;;11.38;87.96
75668;BME280;64266;48.798;44.756;2022-11-20T00:31:37;101441.13;;;11.25;88.05
75668;BME280;64266;48.798;44.756;2022-11-20T00:34:03;101383.97;;;10.97;87.71
75668;BME280;64266;48.798;44.756;2022-11-20T00:36:32;101474.00;;;11.51;88.08
75668;BME280;64266;48.798;44.756;2022-11-20T00:38:59;101336.00;;;10.78;88.72
75668;BME280;64266;48.798;44.756;2022-11-20T00:41:27;101379.69;;;11.09;88.23
75668;BME280;64266;48.798;44.756;2022-11-20T00:43:54;101449.66;;;11.60;88.15
75668;BME280;64266;48.798;44.756;2022-11-20T00:46:22;101472.78;;;11.73;87.83
75668;BME280;64266;48.798;44.756;2022-11-20T00:48:48;101451.72;;;11.65;88.25
75668;BME280;64266;48.798;44.756;2022-11-20T00:51:17;101364.97;;;11.13;88.03
75668;BME280;64266;48.798;44.756;2022-11-20T00:53:43;101400.91;;;11.28;88.10
75668;BME280;64266;48.798;44.756;2022-11-20T00:56:11;101363.53;;;11.17;88.40
75668;BME280;64266;48.798;44.756;2022-11-20T00:58:39;101445.16;;;11.67;88.59
75668;BME280;64266;48.798;44.756;2022-11-20T01:01:11;101380.50;;;11.22;88.48
75668;BME280;64266;48.798;44.756;2022-11-20T01:03:40;101467.03;;;11.82;88.52
75668;BME280;64266;48.798;44.756;2022-11-20T01:06:14;101466.22;;;11.82;88.38
75668;BME280;64266;48.798;44.756;2022-11-20T01:08:41;101383.13;;;11.29;87.91
75668;BME280;64266;48.798;44.756;2022-11-20T01:11:16;101496.66;;;11.92;87.71
75668;BME280;64266;48.798;44.756;2022-11-20T01:13:44;101472.94;;;11.91;87.98
75668;BME280;64266;48.798;44.756;2022-11-20T01:16:15;101457.25;;;11.76;88.22
75668;BME280;64266;48.798;44.756;2022-11-20T01:18:43;101491.53;;;11.91;88.30
75668;BME280;64266;48.798;44.756;2022-11-20T01:21:16;101478.06;;;11.66;87.89
75668;BME280;64266;48.798;44.756;2022-11-20T01:23:43;101503.00;;;11.85;87.82
75668;BME280;64266;48.798;44.756;2022-11-20T01:26:16;101510.97;;;11.85;88.45
75668;BME280;64266;48.798;44.756;2022-11-20T01:28:43;101491.97;;;11.68;88.00
75668;BME280;64266;48.798;44.756;2022-11-20T01:33:56;101502.59;;;11.62;87.35
75668;BME280;64266;48.798;44.756;2022-11-20T01:36:26;101496.91;;;11.71;86.76
75668;BME280;64266;48.798;44.756;2022-11-20T01:38:57;101511.41;;;11.82;87.76
75668;BME280;64266;48.798;44.756;2022-11-20T01:41:25;101515.47;;;11.91;88.03
75668;BME280;64266;48.798;44.756;2022-11-20T01:44:11;101532.84;;;11.93;87.93
75668;BME280;64266;48.798;44.756;2022-11-20T01:46:59;101520.59;;;11.86;87.77
75668;BME280;64266;48.798;44.756;2022-11-20T01:49:28;101544.69;;;11.98;87.83
75668;BME280;64266;48.798;44.756;2022-11-20T01:52:01;101538.59;;;11.84;86.27
75668;BME280;64266;48.798;44.756;2022-11-20T01:54:40;101561.88;;;11.88;87.51
75668;BME280;64266;48.798;44.756;2022-11-20T01:57:09;101488.91;;;11.45;87.50
75668;BME280;64266;48.798;44.756;2022-11-20T01:59:40;101529.63;;;11.72;86.85
75668;BME280;64266;48.798;44.756;2022-11-20T02:02:09;101565.97;;;11.91;87.11
75668;BME280;64266;48.798;44.756;2022-11-20T02:04:35;101465.03;;;11.19;86.61
75668;BME280;64266;48.798;44.756;2022-11-20T02:07:02;101564.13;;;11.91;87.32
75668;BME280;64266;48.798;44.756;2022-11-20T02:09:30;101565.16;;;11.90;87.13
75668;BME280;64266;48.798;44.756;2022-11-20T02:11:57;101569.66;;;11.83;87.45
75668;BME280;64266;48.798;44.756;2022-11-20T02:14:24;101588.88;;;11.92;87.67
75668;BME280;64266;48.798;44.756;2022-11-20T02:16:51;101571.50;;;11.83;86.91
75668;BME280;64266;48.798;44.756;2022-11-20T02:19:24;101580.28;;;11.77;86.50
75668;BME280;64266;48.798;44.756;2022-11-20T02:22:13;101606.06;;;11.89;86.69
75668;BME280;64266;48.798;44.756;2022-11-20T02:24:41;101592.94;;;11.81;87.26
75668;BME280;64266;48.798;44.756;2022-11-20T02:27:11;101584.78;;;11.70;86.23
75668;BME280;64266;48.798;44.756;2022-11-20T02:32:38;101599.31;;;11.80;86.61
75668;BME280;64266;48.798;44.756;2022-11-20T02:37:59;101528.13;;;11.10;86.67
75668;BME280;64266;48.798;44.756;2022-11-20T02:40:26;101599.03;;;11.42;85.46
75668;BME280;64266;48.798;44.756;2022-11-20T02:42:55;101579.38;;;11.17;85.76
75668;BME280;64266;48.798;44.756;2022-11-20T02:45:22;101647.72;;;11.63;86.45
75668;BME280;64266;48.798;44.756;2022-11-20T02:47:48;101663.25;;;11.59;86.40
75668;BME280;64266;48.798;44.756;2022-11-20T02:50:16;101653.81;;;11.43;85.90
75668;BME280;64266;48.798;44.756;2022-11-20T02:52:42;101616.78;;;11.22;86.09
75668;BME280;64266;48.798;44.756;2022-11-20T02:55:08;101638.44;;;11.39;85.90
75668;BME280;64266;48.798;44.756;2022-11-20T02:57:34;101640.09;;;11.33;85.95
75668;BME280;64266;48.798;44.756;2022-11-20T03:00:01;101651.69;;;11.19;83.93
75668;BME280;64266;48.798;44.756;2022-11-20T03:02:30;101654.13;;;11.21;85.59
75668;BME280;64266;48.798;44.756;2022-11-20T03:04:55;101643.84;;;11.05;84.22
75668;BME280;64266;48.798;44.756;2022-11-20T03:07:21;101659.38;;;11.01;84.80
75668;BME280;64266;48.798;44.756;2022-11-20T03:09:48;101601.44;;;10.64;84.65
75668;BME280;64266;48.798;44.756;2022-11-20T03:12:14;101641.56;;;10.88;84.87
75668;BME280;64266;48.798;44.756;2022-11-20T03:14:40;101674.69;;;11.06;84.97
75668;BME280;64266;48.798;44.756;2022-11-20T03:17:05;101675.31;;;11.01;84.82
75668;BME280;64266;48.798;44.756;2022-11-20T03:19:32;101547.97;;;10.19;85.57
75668;BME280;64266;48.798;44.756;2022-11-20T03:21:57;101675.72;;;10.98;84.53
75668;BME280;64266;48.798;44.756;2022-11-20T03:24:23;101617.94;;;10.59;85.16
75668;BME280;64266;48.798;44.756;2022-11-20T03:26:49;101662.50;;;10.77;84.91
75668;BME280;64266;48.798;44.756;2022-11-20T03:29:15;101676.22;;;10.80;84.22
75668;BME280;64266;48.798;44.756;2022-11-20T03:31:41;101672.25;;;10.63;84.25
75668;BME280;64266;48.798;44.756;2022-11-20T03:34:09;101626.09;;;10.23;83.93
75668;BME280;64266;48.798;44.756;2022-11-20T03:36:40;101688.22;;;10.42;82.51
75668;BME280;64266;48.798;44.756;2022-11-20T03:39:07;101697.72;;;10.30;82.81
75668;BME280;64266;48.798;44.756;2022-11-20T03:41:39;101668.16;;;9.84;81.59
75668;BME280;64266;48.798;44.756;2022-11-20T03:44:08;101660.22;;;9.84;83.45
75668;BME280;64266;48.798;44.756;2022-11-20T03:46:34;101739.03;;;10.24;84.15
75668;BME280;64266;48.798;44.756;2022-11-20T03:49:00;101704.34;;;9.98;83.46
75668;BME280;64266;48.798;44.756;2022-11-20T03:51:29;101633.69;;;9.42;84.02
75668;BME280;64266;48.798;44.756;2022-11-20T03:53:58;101724.56;;;9.85;81.21
75668;BME280;64266;48.798;44.756;2022-11-20T03:56:27;101747.13;;;9.95;82.55
75668;BME280;64266;48.798;44.756;2022-11-20T03:58:54;101741.94;;;9.87;82.63
75668;BME280;64266;48.798;44.756;2022-11-20T04:01:22;101752.88;;;9.99;83.37
75668;BME280;64266;48.798;44.756;2022-11-20T04:03:51;101733.09;;;9.80;82.45
75668;BME280;64266;48.798;44.756;2022-11-20T04:06:20;101684.34;;;9.53;83.06
75668;BME280;64266;48.798;44.756;2022-11-20T04:08:46;101754.53;;;9.85;82.37
75668;BME280;64266;48.798;44.756;2022-11-20T04:13:45;101781.09;;;9.70;81.70
75668;BME280;64266;48.798;44.756;2022-11-20T04:16:11;101690.34;;;9.11;83.27
75668;BME280;64266;48.798;44.756;2022-11-20T04:18:37;101783.66;;;9.64;80.91
75668;BME280;64266;48.798;44.756;2022-11-20T04:21:05;101778.28;;;9.57;81.43
75668;BME280;64266;48.798;44.756;2022-11-20T04:23:31;101766.97;;;9.49;80.91
75668;BME280;64266;48.798;44.756;2022-11-20T04:26:06;101778.56;;;9.48;81.92
75668;BME280;64266;48.798;44.756;2022-11-20T04:28:32;101795.28;;;9.48;82.15
75668;BME280;64266;48.798;44.756;2022-11-20T04:31:09;101802.03;;;9.51;81.92
75668;BME280;64266;48.798;44.756;2022-11-20T04:33:36;101816.53;;;9.55;82.03
75668;BME280;64266;48.798;44.756;2022-11-20T04:36:05;101810.88;;;9.58;83.40
75668;BME280;64266;48.798;44.756;2022-11-20T04:38:32;101801.38;;;9.49;83.03
75668;BME280;64266;48.798;44.756;2022-11-20T04:40:59;101824.13;;;9.58;81.71
75668;BME280;64266;48.798;44.756;2022-11-20T04:43:26;101819.75;;;9.36;82.47
75668;BME280;64266;48.798;44.756;2022-11-20T04:45:56;101830.72;;;9.47;82.88
75668;BME280;64266;48.798;44.756;2022-11-20T04:48:24;101860.38;;;9.57;82.10
75668;BME280;64266;48.798;44.756;2022-11-20T04:50:50;101852.25;;;9.44;81.34
75668;BME280;64266;48.798;44.756;2022-11-20T04:53:17;101868.31;;;9.57;82.03
75668;BME280;64266;48.798;44.756;2022-11-20T04:55:43;101803.59;;;9.16;79.91
75668;BME280;64266;48.798;44.756;2022-11-20T04:58:12;101842.66;;;9.29;80.92
75668;BME280;64266;48.798;44.756;2022-11-20T05:00:38;101781.41;;;8.73;80.33
75668;BME280;64266;48.798;44.756;2022-11-20T05:03:05;101810.03;;;8.84;80.74
75668;BME280;64266;48.798;44.756;2022-11-20T05:05:31;101890.94;;;9.31;81.74
75668;BME280;64266;48.798;44.756;2022-11-20T05:07:57;101875.53;;;9.19;81.12
75668;BME280;64266;48.798;44.756;2022-11-20T05:10:24;101898.16;;;9.37;82.31
75668;BME280;64266;48.798;44.756;2022-11-20T05:12:50;101834.59;;;8.93;81.63
75668;BME280;64266;48.798;44.756;2022-11-20T05:15:16;101923.28;;;9.41;81.59
75668;BME280;64266;48.798;44.756;2022-11-20T05:17:47;101854.03;;;9.00;80.30
75668;BME280;64266;48.798;44.756;2022-11-20T05:20:13;101927.28;;;9.37;79.92
75668;BME280;64266;48.798;44.756;2022-11-20T05:22:39;101917.41;;;9.16;79.23
75668;BME280;64266;48.798;44.756;2022-11-20T05:25:05;101930.31;;;9.11;78.49
75668;BME280;64266;48.798;44.756;2022-11-20T05:27:33;101919.56;;;9.12;79.84
75668;BME280;64266;48.798;44.756;2022-11-20T05:29:59;101936.75;;;8.94;77.50
75668;BME280;64266;48.798;44.756;2022-11-20T05:32:25;101915.72;;;8.78;79.43
75668;BME280;64266;48.798;44.756;2022-11-20T05:34:51;101899.47;;;8.66;79.17
75668;BME280;64266;48.798;44.756;2022-11-20T05:37:17;101896.69;;;8.59;77.43
75668;BME280;64266;48.798;44.756;2022-11-20T05:39:43;101908.09;;;8.60;77.18
75668;BME280;64266;48.798;44.756;2022-11-20T05:42:09;101900.16;;;8.60;79.43
75668;BME280;64266;48.798;44.756;2022-11-20T05:44:54;101938.34;;;8.80;79.42
75668;BME280;64266;48.798;44.756;2022-11-20T05:47:19;101952.41;;;8.81;79.86
75668;BME280;64266;48.798;44.756;2022-11-20T05:49:46;101954.56;;;8.77;80.75
75668;BME280;64266;48.798;44.756;2022-11-20T05:52:13;101921.03;;;8.55;80.63
75668;BME280;64266;48.798;44.756;2022-11-20T05:54:38;101977.78;;;8.90;80.39
75668;BME280;64266;48.798;44.756;2022-11-20T05:57:04;101978.81;;;8.89;79.77
75668;BME280;64266;48.798;44.756;2022-11-20T05:59:30;101984.38;;;8.94;80.40
75668;BME280;64266;48.798;44.756;2022-11-20T06:01:57;101866.72;;;8.13;78.53
75668;BME280;64266;48.798;44.756;2022-11-20T06:04:23;101861.16;;;8.08;77.56
75668;BME280;64266;48.798;44.756;2022-11-20T06:06:49;101937.66;;;8.63;79.19
75668;BME280;64266;48.798;44.756;2022-11-20T06:09:15;101998.56;;;9.01;78.75
75668;BME280;64266;48.798;44.756;2022-11-20T06:11:41;101904.38;;;8.46;77.12
75668;BME280;64266;48.798;44.756;2022-11-20T06:14:07;101970.56;;;8.84;77.47
75668;BME280;64266;48.798;44.756;2022-11-20T06:16:33;101962.97;;;8.81;78.56
75668;BME280;64266;48.798;44.756;2022-11-20T06:18:59;101918.13;;;8.42;78.78
75668;BME280;64266;48.798;44.756;2022-11-20T06:21:25;101910.19;;;8.42;79.46
75668;BME280;64266;48.798;44.756;2022-11-20T06:23:52;101928.28;;;8.53;79.26
75668;BME280;64266;48.798;44.756;2022-11-20T06:26:22;101892.22;;;8.37;75.85
75668;BME280;64266;48.798;44.756;2022-11-20T06:28:49;101999.03;;;9.04;77.58
75668;BME280;64266;48.798;44.756;2022-11-20T06:31:18;101948.03;;;8.65;77.18
75668;BME280;64266;48.798;44.756;2022-11-20T06:33:45;102018.81;;;9.08;77.03
75668;BME280;64266;48.798;44.756;2022-11-20T06:36:12;102007.25;;;8.87;76.27
75668;BME280;64266;48.798;44.756;2022-11-20T06:38:39;102050.06;;;9.13;77.15
75668;BME280;64266;48.798;44.756;2022-11-20T06:41:06;102043.66;;;9.07;74.43
75668;BME280;64266;48.798;44.756;2022-11-20T06:43:32;101975.78;;;8.69;76.99
75668;BME280;64266;48.798;44.756;2022-11-20T06:45:58;101966.19;;;8.68;77.78
75668;BME280;64266;48.798;44.756;2022-11-20T06:48:26;102055.47;;;9.19;76.98
75668;BME280;64266;48.798;44.756;2022-11-20T06:50:52;101954.16;;;8.65;76.42
75668;BME280;64266;48.798;44.756;2022-11-20T06:53:19;101978.56;;;8.76;77.26
75668;BME280;64266;48.798;44.756;2022-11-20T06:55:46;102039.88;;;9.02;75.83
75668;BME280;64266;48.798;44.756;2022-11-20T06:58:14;102059.47;;;9.15;76.48
75668;BME280;64266;48.798;44.756;2022-11-20T07:00:40;101985.88;;;8.65;75.73
75668;BME280;64266;48.798;44.756;2022-11-20T07:03:07;102073.88;;;9.13;72.94
75668;BME280;64266;48.798;44.756;2022-11-20T07:05:34;101943.19;;;8.15;74.25
75668;BME280;64266;48.798;44.756;2022-11-20T07:08:02;102013.22;;;8.50;74.15
75668;BME280;64266;48.798;44.756;2022-11-20T07:10:28;102028.06;;;8.59;73.89
75668;BME280;64266;48.798;44.756;2022-11-20T07:12:54;102072.53;;;8.86;74.34
75668;BME280;64266;48.798;44.756;2022-11-20T07:15:22;102093.69;;;8.86;74.46
75668;BME280;64266;48.798;44.756;2022-11-20T07:17:48;102101.97;;;8.91;74.05
75668;BME280;64266;48.798;44.756;2022-11-20T07:20:14;102097.16;;;8.95;73.47
75668;BME280;64266;48.798;44.756;2022-11-20T07:22:41;102071.41;;;8.81;74.21
75668;BME280;64266;48.798;44.756;2022-11-20T07:25:07;102083.47;;;8.83;72.83
75668;BME280;64266;48.798;44.756;2022-11-20T07:27:35;102067.84;;;8.65;73.23
75668;BME280;64266;48.798;44.756;2022-11-20T07:30:01;102088.47;;;8.78;73.10
75668;BME280;64266;48.798;44.756;2022-11-20T07:32:29;102095.06;;;8.82;74.11
75668;BME280;64266;48.798;44.756;2022-11-20T07:34:55;102002.44;;;8.29;73.36
75668;BME280;64266;48.798;44.756;2022-11-20T07:37:21;102059.63;;;8.60;73.50
75668;BME280;64266;48.798;44.756;2022-11-20T07:39:47;102022.59;;;8.30;74.07
75668;BME280;64266;48.798;44.756;2022-11-20T07:42:13;102004.06;;;8.22;74.20
75668;BME280;64266;48.798;44.756;2022-11-20T07:44:39;102047.78;;;8.48;74.43
75668;BME280;64266;48.798;44.756;2022-11-20T07:47:09;101987.75;;;8.18;73.91
75668;BME280;64266;48.798;44.756;2022-11-20T07:49:37;102081.56;;;8.69;74.36
75668;BME280;64266;48.798;44.756;2022-11-20T07:52:03;102048.09;;;8.53;74.71
75668;BME280;64266;48.798;44.756;2022-11-20T07:54:29;101991.34;;;8.25;74.21
75668;BME280;64266;48.798;44.756;2022-11-20T07:56:58;102086.44;;;8.88;74.25
75668;BME280;64266;48.798;44.756;2022-11-20T07:59:28;101968.78;;;8.06;74.91
75668;BME280;64266;48.798;44.756;2022-11-20T08:02:19;102071.03;;;8.61;73.73
75668;BME280;64266;48.798;44.756;2022-11-20T08:04:45;102014.97;;;8.35;73.23
75668;BME280;64266;48.798;44.756;2022-11-20T08:07:11;102051.28;;;8.41;74.00
75668;BME280;64266;48.798;44.756;2022-11-20T08:09:39;102117.22;;;8.81;74.19
75668;BME280;64266;48.798;44.756;2022-11-20T08:12:05;102125.09;;;8.89;74.70
75668;BME280;64266;48.798;44.756;2022-11-20T08:14:53;102160.72;;;9.09;73.80
75668;BME280;64266;48.798;44.756;2022-11-20T08:17:42;102149.31;;;9.09;73.81
75668;BME280;64266;48.798;44.756;2022-11-20T08:20:46;102164.38;;;9.08;74.19
75668;BME280;64266;48.798;44.756;2022-11-20T08:23:36;102092.59;;;8.42;71.03
75668;BME280;64266;48.798;44.756;2022-11-20T08:26:02;102161.16;;;8.90;73.14
75668;BME280;64266;48.798;44.756;2022-11-20T08:28:37;102030.19;;;8.16;74.36
75668;BME280;64266;48.798;44.756;2022-11-20T08:31:28;102095.56;;;8.39;73.25
75668;BME280;64266;48.798;44.756;2022-11-20T08:34:40;102189.06;;;9.01;74.42
75668;BME280;64266;48.798;44.756;2022-11-20T08:37:15;102111.38;;;8.55;74.39
75668;BME280;64266;48.798;44.756;2022-11-20T08:39:47;102110.38;;;8.56;73.10
75668;BME280;64266;48.798;44.756;2022-11-20T08:43:23;102192.00;;;9.06;72.19
75668;BME280;64266;48.798;44.756;2022-11-20T08:46:02;102123.78;;;8.54;71.61
75668;BME280;64266;48.798;44.756;2022-11-20T08:48:28;102185.81;;;8.83;72.74
75668;BME280;64266;48.798;44.756;2022-11-20T08:50:57;102169.66;;;8.69;71.57
75668;BME280;64266;48.798;44.756;2022-11-20T08:53:24;102143.09;;;8.55;73.17
75668;BME280;64266;48.798;44.756;2022-11-20T08:55:50;102157.63;;;8.59;73.24
75668;BME280;64266;48.798;44.756;2022-11-20T08:58:16;102198.88;;;8.84;71.50
75668;BME280;64266;48.798;44.756;2022-11-20T09:00:42;102168.97;;;8.67;73.10
75668;BME280;64266;48.798;44.756;2022-11-20T09:03:08;102162.91;;;8.67;73.35
75668;BME280;64266;48.798;44.756;2022-11-20T09:08:45;102194.44;;;8.77;72.27
75668;BME280;64266;48.798;44.756;2022-11-20T09:11:11;102187.34;;;8.69;72.49
75668;BME280;64266;48.798;44.756;2022-11-20T09:13:36;102186.22;;;8.55;72.69
75668;BME280;64266;48.798;44.756;2022-11-20T09:16:05;102173.66;;;8.57;72.41
75668;BME280;64266;48.798;44.756;2022-11-20T09:18:33;102185.19;;;8.64;72.94
75668;BME280;64266;48.798;44.756;2022-11-20T09:21:09;102206.34;;;8.73;72.24
75668;BME280;64266;48.798;44.756;2022-11-20T09:23:39;102188.72;;;8.49;71.58
75668;BME280;64266;48.798;44.756;2022-11-20T09:26:14;102127.47;;;7.97;71.67
75668;BME280;64266;48.798;44.756;2022-11-20T09:28:40;102144.81;;;8.07;73.29
75668;BME280;64266;48.798;44.756;2022-11-20T09:31:25;102189.38;;;8.18;70.90
75668;BME280;64266;48.798;44.756;2022-11-20T09:33:51;102232.69;;;8.42;71.66
75668;BME280;64266;48.798;44.756;2022-11-20T09:36:17;102188.56;;;8.18;72.47
75668;BME280;64266;48.798;44.756;2022-11-20T09:38:47;102206.91;;;8.28;70.69
75668;BME280;64266;48.798;44.756;2022-11-20T09:46:32;102185.25;;;8.16;73.39
75668;BME280;64266;48.798;44.756;2022-11-20T09:51:52;102218.81;;;8.32;72.22
75668;BME280;64266;48.798;44.756;2022-11-20T09:54:32;102191.53;;;8.07;70.96
75668;BME280;64266;48.798;44.756;2022-11-20T09:57:02;102190.69;;;8.23;73.47
75668;BME280;64266;48.798;44.756;2022-11-20T09:59:44;102180.81;;;8.16;72.59
75668;BME280;64266;48.798;44.756;2022-11-20T10:10:51;102219.78;;;8.14;71.18
75668;BME280;64266;48.798;44.756;2022-11-20T10:24:47;102243.38;;;8.16;70.68
75668;BME280;64266;48.798;44.756;2022-11-20T10:27:54;102232.31;;;8.12;72.11
75668;BME280;64266;48.798;44.756;2022-11-20T10:30:22;102221.09;;;8.10;72.62
75668;BME280;64266;48.798;44.756;2022-11-20T10:35:26;102197.63;;;7.91;71.33
75668;BME280;64266;48.798;44.756;2022-11-20T10:38:07;102234.97;;;8.12;72.67
75668;BME280;64266;48.798;44.756;2022-11-20T10:40:51;102227.72;;;8.14;72.82
75668;BME280;64266;48.798;44.756;2022-11-20T10:43:28;102218.31;;;8.28;73.62
75668;BME280;64266;48.798;44.756;2022-11-20T10:46:01;102204.91;;;8.38;71.99
75668;BME280;64266;48.798;44.756;2022-11-20T10:48:31;102193.69;;;8.19;71.08
75668;BME280;64266;48.798;44.756;2022-11-20T10:56:14;102190.88;;;8.13;71.16
75668;BME280;64266;48.798;44.756;2022-11-20T10:59:02;102207.53;;;8.22;71.76
75668;BME280;64266;48.798;44.756;2022-11-20T11:01:28;102228.34;;;8.25;70.85
75668;BME280;64266;48.798;44.756;2022-11-20T11:03:55;102215.47;;;8.13;70.18
75668;BME280;64266;48.798;44.756;2022-11-20T11:06:43;102233.50;;;8.18;71.29
75668;BME280;64266;48.798;44.756;2022-11-20T11:09:16;102182.94;;;7.89;69.69
75668;BME280;64266;48.798;44.756;2022-11-20T11:11:45;102202.63;;;8.02;70.20
75668;BME280;64266;48.798;44.756;2022-11-20T11:14:14;102187.56;;;8.03;70.30
75668;BME280;64266;48.798;44.756;2022-11-20T11:16:57;102177.50;;;7.98;70.56
75668;BME280;64266;48.798;44.756;2022-11-20T11:19:24;102180.47;;;8.03;70.48
75668;BME280;64266;48.798;44.756;2022-11-20T11:21:53;102159.38;;;7.87;70.57
75668;BME280;64266;48.798;44.756;2022-11-20T11:24:29;102136.59;;;7.78;70.65
75668;BME280;64266;48.798;44.756;2022-11-20T11:27:01;102171.91;;;8.01;71.38
75668;BME280;64266;48.798;44.756;2022-11-20T11:29:31;102176.84;;;7.96;69.39
75668;BME280;64266;48.798;44.756;2022-11-20T11:32:23;102182.13;;;7.88;72.70
75668;BME280;64266;48.798;44.756;2022-11-20T11:34:59;102197.63;;;7.91;70.53
75668;BME280;64266;48.798;44.756;2022-11-20T11:37:32;102173.88;;;7.83;72.37
75668;BME280;64266;48.798;44.756;2022-11-20T11:40:00;102178.16;;;7.92;72.52
75668;BME280;64266;48.798;44.756;2022-11-20T11:42:27;102186.41;;;7.97;71.96
75668;BME280;64266;48.798;44.756;2022-11-20T11:44:57;102158.53;;;7.87;70.60
75668;BME280;64266;48.798;44.756;2022-11-20T11:47:35;102181.63;;;8.01;70.65
75668;BME280;64266;48.798;44.756;2022-11-20T11:52:46;102206.72;;;8.05;71.93
75668;BME280;64266;48.798;44.756;2022-11-20T11:55:28;102177.19;;;8.01;71.55
75668;BME280;64266;48.798;44.756;2022-11-20T12:00:39;102193.19;;;8.08;71.61
75668;BME280;64266;48.798;44.756;2022-11-20T12:03:14;102203.91;;;8.23;72.40
75668;BME280;64266;48.798;44.756;2022-11-20T12:05:47;102181.16;;;8.05;71.70
75668;BME280;64266;48.798;44.756;2022-11-20T12:08:46;102205.72;;;8.22;70.78
75668;BME280;64266;48.798;44.756;2022-11-20T12:16:38;102215.78;;;8.18;70.86
75668;BME280;64266;48.798;44.756;2022-11-20T12:19:10;102183.78;;;8.05;71.98
75668;BME280;64266;48.798;44.756;2022-11-20T12:30:21;102183.63;;;8.15;71.46
75668;BME280;64266;48.798;44.756;2022-11-20T12:35:48;102189.38;;;8.10;71.46
75668;BME280;64266;48.798;44.756;2022-11-20T12:41:09;102205.56;;;8.15;70.84
75668;BME280;64266;48.798;44.756;2022-11-20T12:43:57;102217.28;;;8.13;71.46
75668;BME280;64266;48.798;44.756;2022-11-20T12:46:49;102234.31;;;8.10;70.54
75668;BME280;64266;48.798;44.756;2022-11-20T12:49:24;102248.50;;;8.09;68.39
75668;BME280;64266;48.798;44.756;2022-11-20T12:52:24;102237.94;;;8.01;69.66
75668;BME280;64266;48.798;44.756;2022-11-20T12:58:20;102273.09;;;8.02;72.13
75668;BME280;64266;48.798;44.756;2022-11-20T13:00:26;102261.72;;;8.01;70.51
75668;BME280;64266;48.798;44.756;2022-11-20T13:03:09;102240.06;;;8.06;71.77
75668;BME280;64266;48.798;44.756;2022-11-20T13:08:36;102227.69;;;8.06;72.25
75668;BME280;64266;48.798;44.756;2022-11-20T13:16:36;102193.63;;;7.63;70.55
75668;BME280;64266;48.798;44.756;2022-11-20T13:19:05;102246.66;;;7.86;70.81
75668;BME280;64266;48.798;44.756;2022-11-20T13:21:45;102188.69;;;7.44;71.22
75668;BME280;64266;48.798;44.756;2022-11-20T13:24:24;102280.19;;;7.93;72.18
75668;BME280;64266;48.798;44.756;2022-11-20T13:30:11;102288.59;;;7.97;71.83
75668;BME280;64266;48.798;44.756;2022-11-20T13:32:48;102239.34;;;7.63;71.22
75668;BME280;64266;48.798;44.756;2022-11-20T13:38:13;102302.00;;;8.03;71.65
75668;BME280;64266;48.798;44.756;2022-11-20T13:45:55;102291.56;;;7.86;69.69
75668;BME280;64266;48.798;44.756;2022-11-20T13:48:24;102250.28;;;7.77;69.84
75668;BME280;64266;48.798;44.756;2022-11-20T13:51:04;102267.59;;;7.79;69.84
75668;BME280;64266;48.798;44.756;2022-11-20T14:02:01;102105.78;;;6.96;70.96
75668;BME280;64266;48.798;44.756;2022-11-20T14:04:33;102225.81;;;7.67;70.29
75668;BME280;64266;48.798;44.756;2022-11-20T14:07:01;102225.34;;;7.71;71.42
75668;BME280;64266;48.798;44.756;2022-11-20T14:09:31;102231.66;;;7.78;70.14
75668;BME280;64266;48.798;44.756;2022-11-20T14:11:58;102187.34;;;7.32;68.99
75668;BME280;64266;48.798;44.756;2022-11-20T14:14:32;102219.88;;;7.56;71.00
75668;BME280;64266;48.798;44.756;2022-11-20T14:17:40;102224.06;;;7.75;70.60
75668;BME280;64266;48.798;44.756;2022-11-20T14:20:05;102238.38;;;7.64;69.77
75668;BME280;64266;48.798;44.756;2022-11-20T14:22:31;102246.44;;;7.63;70.68
75668;BME280;64266;48.798;44.756;2022-11-20T14:25:22;102252.09;;;7.68;70.71
75668;BME280;64266;48.798;44.756;2022-11-20T14:27:53;102271.03;;;7.63;71.26
75668;BME280;64266;48.798;44.756;2022-11-20T14:30:25;102256.69;;;7.66;70.99
75668;BME280;64266;48.798;44.756;2022-11-20T14:32:56;102264.91;;;7.63;71.36
75668;BME280;64266;48.798;44.756;2022-11-20T14:35:29;102230.34;;;7.32;70.15
75668;BME280;64266;48.798;44.756;2022-11-20T14:38:00;102237.84;;;7.53;71.37
75668;BME280;64266;48.798;44.756;2022-11-20T14:41:17;102173.09;;;7.17;70.41
75668;BME280;64266;48.798;44.756;2022-11-20T14:43:46;102214.56;;;7.48;71.96
75668;BME280;64266;48.798;44.756;2022-11-20T14:46:14;102231.44;;;7.63;70.31
75668;BME280;64266;48.798;44.756;2022-11-20T14:48:45;102236.56;;;7.65;71.25
75668;BME280;64266;48.798;44.756;2022-11-20T14:51:12;;;;7.77;
75668;BME280;64266;48.798;44.756;2022-11-20T14:53:48;102224.53;;;7.71;70.37